KRBG/RBG METAR and TAF weather

Enter ICAO airport designator
Station Type Date Time Source
KRBG METAR 2020/08/14 16:53 UTC NOAA

KRBG 141653Z AUTO 27004KT 10SM CLR 19/06 A3011 RMK AO2 SLP195 T01890061


Station Type Date Time Source
KRBG Decoded METAR 2020/08/14 16:53 UTC NOAA

ROSEBURG REGIONAL AIRPORT, OR, United States (KRBG) 43-14N 123-21W 154M
Aug 14, 2020 - 12:53 PM EDT / 2020.08.14 1653 UTC
Wind: from the W (270 degrees) at 5 MPH (4 KT):0
Visibility: 10 mile(s):0
Sky conditions: clear
Temperature: 66.0 F (18.9 C)
Dew Point: 43.0 F (6.1 C)
Relative Humidity: 43%
Pressure (altimeter): 30.11 in. Hg (1019 hPa)
ob: KRBG 141653Z AUTO 27004KT 10SM CLR 19/06 A3011 RMK AO2 SLP195 T01890061
cycle: 17

Station Type Date Time Source
KRBG TAF 2020/08/14 18:27 UTC NOAA

TAF KRBG 141725Z 1418/1518 34005KT P6SM SKC
FM142100 01010G17KT P6SM SKC
FM150200 01002KT P6SM SKC

Example: see airport list